createdAt,value
2019-05-29T00:03:18.824Z,976.79
2019-05-29T00:08:18.490Z,976.91
2019-05-29T00:13:18.452Z,976.94
2019-05-29T00:18:18.591Z,976.99
2019-05-29T00:23:18.728Z,977.0
2019-05-29T00:28:17.559Z,977.01
2019-05-29T00:33:23.945Z,977.03
2019-05-29T00:38:24.157Z,977.07
2019-05-29T00:43:24.060Z,977.13
2019-05-29T00:48:24.097Z,977.16
2019-05-29T00:53:24.216Z,977.22
2019-05-29T00:58:24.207Z,977.39
2019-05-29T01:03:24.320Z,977.38
2019-05-29T01:08:24.344Z,977.46
2019-05-29T01:13:24.564Z,977.5
2019-05-29T01:18:24.534Z,977.58
2019-05-29T01:23:24.569Z,977.57
2019-05-29T01:28:30.957Z,977.62
2019-05-29T01:33:31.317Z,977.67
2019-05-29T01:38:31.189Z,977.67
2019-05-29T01:43:31.137Z,977.73
2019-05-29T01:48:31.157Z,977.71
2019-05-29T01:53:31.275Z,977.72
2019-05-29T01:58:31.311Z,977.74
2019-05-29T02:03:31.351Z,977.83
2019-05-29T02:08:31.389Z,977.84
2019-05-29T02:13:31.418Z,977.98
2019-05-29T02:18:31.554Z,978.01
2019-05-29T02:23:39.864Z,978.03
2019-05-29T02:28:39.900Z,978.05
2019-05-29T02:33:40.084Z,978.07
2019-05-29T02:38:40.429Z,978.1
2019-05-29T02:43:40.141Z,978.14
2019-05-29T02:48:40.181Z,978.2
2019-05-29T02:53:40.296Z,978.25
2019-05-29T02:58:40.301Z,978.33
2019-05-29T03:03:40.834Z,978.35
2019-05-29T03:08:40.467Z,978.44
2019-05-29T03:13:40.590Z,978.49
2019-05-29T03:18:46.865Z,978.58
2019-05-29T03:23:46.904Z,978.64
2019-05-29T03:28:47.945Z,978.72
2019-05-29T03:33:51.530Z,978.79
2019-05-29T03:38:47.147Z,978.82
2019-05-29T03:43:47.202Z,978.9
2019-05-29T03:48:47.241Z,978.98
2019-05-29T03:53:47.278Z,979.03
2019-05-29T03:58:47.318Z,979.06
2019-05-29T04:03:48.022Z,979.17
2019-05-29T04:08:47.509Z,979.27
2019-05-29T04:13:53.850Z,979.34
2019-05-29T04:18:53.892Z,979.41
2019-05-29T04:23:53.929Z,979.45
2019-05-29T04:28:54.913Z,979.61
2019-05-29T04:33:54.905Z,979.63
2019-05-29T04:38:55.018Z,979.66
2019-05-29T04:43:57.661Z,979.77
2019-05-29T04:48:55.138Z,979.84
2019-05-29T04:53:55.547Z,979.93
2019-05-29T04:58:55.294Z,979.98
2019-05-29T05:03:55.266Z,980.03
2019-05-29T05:09:01.661Z,980.12
2019-05-29T05:14:02.410Z,980.17
2019-05-29T05:19:01.793Z,980.19
2019-05-29T05:24:01.829Z,980.23
2019-05-29T05:29:01.860Z,980.32
2019-05-29T05:34:01.973Z,980.36
2019-05-29T05:39:02.249Z,980.42
2019-05-29T05:44:03.001Z,980.48
2019-05-29T05:49:02.085Z,980.54
2019-05-29T05:54:02.197Z,980.61
2019-05-29T05:59:02.234Z,980.71
2019-05-29T06:04:08.577Z,980.75
2019-05-29T06:09:08.801Z,980.79
2019-05-29T06:14:08.661Z,980.77
2019-05-29T06:19:08.841Z,980.85
2019-05-29T06:24:08.860Z,980.86
2019-05-29T06:29:08.880Z,980.94
2019-05-29T06:34:09.168Z,980.96
2019-05-29T06:39:09.061Z,981.03
2019-05-29T06:44:09.084Z,981.12
2019-05-29T06:49:09.220Z,981.23
2019-05-29T06:54:09.259Z,981.3
2019-05-29T06:59:15.577Z,981.29
2019-05-29T07:04:15.694Z,981.34
2019-05-29T07:09:15.715Z,981.38
2019-05-29T07:14:15.832Z,981.48
2019-05-29T07:19:53.781Z,981.52
2019-05-29T07:24:16.319Z,981.57
2019-05-29T07:29:15.993Z,981.58
2019-05-29T07:34:16.031Z,981.67
2019-05-29T07:39:16.065Z,981.69
2019-05-29T07:44:16.340Z,981.76
2019-05-29T07:49:16.213Z,981.78
2019-05-29T07:54:22.570Z,981.87
2019-05-29T07:59:22.604Z,981.94
2019-05-29T08:04:22.720Z,982.01
2019-05-29T08:09:22.755Z,982.04
2019-05-29T08:14:23.092Z,982.09
2019-05-29T08:19:22.880Z,982.1
2019-05-29T08:24:25.361Z,982.11
2019-05-29T08:29:23.043Z,982.13
2019-05-29T08:34:23.052Z,982.16
2019-05-29T08:39:37.325Z,982.14
2019-05-29T08:44:23.248Z,982.19
2019-05-29T08:49:29.584Z,982.18
2019-05-29T08:54:29.616Z,982.19
2019-05-29T08:59:29.783Z,982.31
2019-05-29T09:04:30.259Z,982.33
2019-05-29T09:09:29.933Z,982.4
2019-05-29T09:14:29.968Z,982.4
2019-05-29T09:19:30.089Z,982.45
2019-05-29T09:24:30.031Z,982.49
2019-05-29T09:29:30.068Z,982.5
2019-05-29T09:34:30.251Z,982.54
2019-05-29T09:39:30.304Z,982.54
2019-05-29T09:44:40.515Z,982.6
2019-05-29T09:49:36.694Z,982.63
2019-05-29T09:54:37.214Z,982.63
2019-05-29T09:59:42.706Z,982.69
2019-05-29T10:04:43.177Z,982.69
2019-05-29T10:09:43.150Z,982.76
2019-05-29T10:14:43.130Z,982.76
2019-05-29T10:19:43.168Z,982.79
2019-05-29T10:24:43.285Z,982.86
2019-05-29T10:29:44.218Z,982.95
2019-05-29T10:34:44.764Z,982.93
2019-05-29T10:39:51.128Z,982.98
2019-05-29T10:44:51.150Z,982.95
2019-05-29T10:49:50.268Z,982.94
2019-05-29T10:54:50.762Z,982.97
2019-05-29T10:59:51.407Z,982.96
2019-05-29T11:04:59.579Z,982.97
2019-05-29T11:09:51.879Z,982.98
2019-05-29T11:14:52.491Z,982.92
2019-05-29T11:19:51.670Z,982.89
2019-05-29T11:24:52.198Z,982.86
2019-05-29T11:29:53.085Z,982.94
2019-05-29T11:35:01.825Z,982.95
2019-05-29T11:39:59.953Z,982.96
2019-05-29T11:45:00.306Z,983.03
2019-05-29T11:50:20.231Z,983.05
2019-05-29T11:55:08.750Z,983.12
2019-05-29T12:00:21.211Z,983.19
2019-05-29T12:05:04.404Z,983.23
2019-05-29T12:10:06.611Z,983.29
2019-05-29T12:15:18.768Z,983.23
2019-05-29T12:20:29.237Z,983.18
2019-05-29T12:25:06.309Z,983.13
2019-05-29T12:30:14.665Z,983.19
2019-05-29T12:35:14.778Z,983.25
2019-05-29T12:40:15.523Z,983.28
2019-05-29T12:45:16.095Z,983.23
2019-05-29T12:50:16.360Z,983.3
2019-05-29T12:55:16.540Z,983.33
2019-05-29T13:00:16.552Z,983.35
2019-05-29T13:05:21.392Z,983.42
2019-05-29T13:10:31.578Z,983.36
2019-05-29T13:15:16.781Z,983.49
2019-05-29T13:20:22.751Z,983.53
2019-05-29T13:25:23.362Z,983.51
2019-05-29T13:30:24.351Z,983.52
2019-05-29T13:35:24.540Z,983.57
2019-05-29T13:40:24.555Z,983.55
2019-05-29T13:45:24.739Z,983.59
2019-05-29T13:50:24.755Z,983.6
2019-05-29T13:55:24.870Z,983.63
2019-05-29T14:00:35.531Z,983.62
2019-05-29T14:05:25.096Z,983.67
2019-05-29T14:10:25.176Z,983.76
2019-05-29T14:15:25.482Z,983.73
2019-05-29T14:20:31.627Z,983.72
2019-05-29T14:25:31.679Z,983.69
2019-05-29T14:30:31.641Z,983.71
2019-05-29T14:35:31.677Z,983.72
2019-05-29T14:40:32.355Z,983.72
2019-05-29T14:45:31.840Z,983.7
2019-05-29T14:50:31.957Z,983.74
2019-05-29T14:55:31.937Z,983.72
2019-05-29T15:00:32.053Z,983.76
2019-05-29T15:05:32.068Z,983.8
2019-05-29T15:10:32.185Z,983.9
2019-05-29T15:15:42.517Z,983.93
2019-05-29T15:20:43.036Z,983.97
2019-05-29T15:25:43.608Z,983.95
2019-05-29T15:30:43.795Z,984.01
2019-05-29T15:35:50.836Z,983.97
2019-05-29T15:40:50.869Z,983.97
2019-05-29T15:45:51.175Z,983.96
2019-05-29T15:50:54.319Z,983.96
2019-05-29T15:55:54.875Z,984.01
2019-05-29T16:00:55.069Z,984.0
2019-05-29T16:05:58.477Z,984.09
2019-05-29T16:11:12.772Z,984.01
2019-05-29T16:16:12.767Z,984.03
2019-05-29T16:21:12.782Z,984.05
2019-05-29T16:26:13.458Z,984.05
2019-05-29T16:31:17.150Z,984.06
2019-05-29T16:36:18.888Z,984.08
2019-05-29T16:41:18.770Z,984.16
2019-05-29T16:46:24.640Z,984.22
2019-05-29T16:51:18.988Z,984.41
2019-05-29T16:56:54.075Z,984.44
2019-05-29T17:07:34.391Z,984.56
2019-05-29T17:12:34.808Z,984.58
2019-05-29T17:17:34.560Z,984.59
2019-05-29T17:22:34.597Z,984.56
2019-05-29T17:27:34.741Z,984.58
2019-05-29T17:32:34.761Z,984.6
2019-05-29T17:37:34.877Z,984.54
2019-05-29T17:42:34.914Z,984.53
2019-05-29T17:47:34.955Z,984.57
2019-05-29T17:52:36.211Z,984.6
2019-05-29T17:57:36.481Z,984.7
2019-05-29T18:02:53.330Z,984.72
2019-05-29T18:07:44.894Z,984.77
2019-05-29T18:12:44.929Z,984.87
2019-05-29T18:17:45.286Z,984.9
2019-05-29T18:22:45.137Z,984.92
2019-05-29T18:27:45.171Z,984.97
2019-05-29T18:32:45.270Z,985.02
2019-05-29T18:37:45.297Z,984.97
2019-05-29T18:42:45.501Z,984.98
2019-05-29T18:47:45.391Z,985.04
2019-05-29T18:52:45.597Z,985.06
2019-05-29T18:57:52.841Z,985.06
2019-05-29T19:02:54.073Z,985.17
2019-05-29T19:08:04.161Z,985.22
2019-05-29T19:13:04.686Z,985.23
2019-05-29T19:18:07.351Z,985.37
2019-05-29T19:23:06.806Z,985.5
2019-05-29T19:28:07.181Z,985.58
2019-05-29T19:33:07.403Z,985.64
2019-05-29T19:38:07.621Z,985.72
2019-05-29T19:43:09.705Z,985.79
2019-05-29T19:48:11.313Z,985.95
2019-05-29T19:53:34.069Z,986.01
2019-05-29T19:58:34.361Z,986.15
2019-05-29T20:03:35.201Z,986.18
2019-05-29T20:08:46.985Z,986.23
2019-05-29T20:13:47.654Z,986.33
2019-05-29T20:18:51.613Z,986.42
2019-05-29T20:24:19.865Z,986.45
2019-05-29T20:29:24.126Z,986.49
2019-05-29T20:39:52.147Z,986.56
2019-05-29T20:53:52.977Z,986.69
2019-05-29T20:58:49.728Z,986.75
2019-05-29T21:04:03.221Z,986.75
2019-05-29T21:09:04.217Z,986.76
2019-05-29T21:14:11.681Z,986.8
2019-05-29T21:25:15.802Z,986.79
2019-05-29T21:41:05.189Z,986.9
2019-05-29T21:46:07.081Z,986.88
2019-05-29T21:51:37.899Z,986.94
2019-05-29T21:56:44.049Z,986.9
2019-05-29T22:01:46.610Z,986.9
2019-05-29T22:06:48.798Z,986.88
2019-05-29T22:11:58.442Z,986.86
2019-05-29T22:17:03.555Z,986.9
2019-05-29T22:22:09.274Z,986.91
2019-05-29T22:27:11.365Z,986.91
2019-05-29T22:32:11.965Z,986.95
2019-05-29T22:37:15.452Z,986.98
2019-05-29T22:42:22.712Z,987.02
2019-05-29T22:47:29.240Z,986.98
2019-05-29T22:52:30.261Z,986.98
2019-05-29T22:57:31.344Z,987.04
2019-05-29T23:02:31.565Z,987.03
2019-05-29T23:07:33.810Z,987.08
2019-05-29T23:12:43.126Z,987.08
2019-05-29T23:17:43.703Z,987.08
2019-05-29T23:22:44.041Z,987.06
2019-05-29T23:27:44.565Z,987.03
2019-05-29T23:32:44.680Z,987.01
2019-05-29T23:37:44.717Z,987.03
2019-05-29T23:42:55.226Z,987.04
2019-05-29T23:47:53.904Z,987.03
2019-05-29T23:52:54.140Z,987.07
2019-05-29T23:57:54.252Z,987.04
